createdAt,value
2023-05-14T00:00:18.290Z,5000.0000
2023-05-14T00:01:20.010Z,5000.0000
2023-05-14T00:02:21.636Z,5000.0000
2023-05-14T00:03:23.361Z,5000.0000
2023-05-14T00:04:24.895Z,5000.0000
2023-05-14T00:05:26.563Z,5000.0000
2023-05-14T00:06:28.180Z,5000.0000
2023-05-14T00:07:30.273Z,5000.0000
2023-05-14T00:08:31.460Z,5000.0000
2023-05-14T00:09:33.158Z,5000.0000
2023-05-14T00:10:34.766Z,5000.0000
2023-05-14T00:11:36.445Z,5000.0000
2023-05-14T00:12:38.070Z,5000.0000
2023-05-14T00:13:39.701Z,5000.0000
2023-05-14T00:14:41.366Z,5000.0000
2023-05-14T00:15:43.017Z,5000.0000
2023-05-14T00:16:44.629Z,5000.0000
2023-05-14T00:17:46.380Z,5000.0000
2023-05-14T00:18:47.916Z,5000.0000
2023-05-14T00:19:49.571Z,5000.0000
2023-05-14T00:20:51.728Z,5000.0000
2023-05-14T00:21:52.832Z,5000.0000
2023-05-14T00:22:54.539Z,5000.0000
2023-05-14T00:23:56.159Z,5000.0000
2023-05-14T00:24:57.822Z,5000.0000
2023-05-14T00:25:59.426Z,5000.0000
2023-05-14T00:27:01.079Z,5000.0000
2023-05-14T00:28:02.744Z,5000.0000
2023-05-14T00:29:04.331Z,5000.0000
2023-05-14T00:30:06.113Z,5000.0000
2023-05-14T00:31:07.697Z,5000.0000
2023-05-14T00:32:09.258Z,5000.0000
2023-05-14T00:33:10.998Z,5000.0000
2023-05-14T00:34:12.568Z,5000.0000
2023-05-14T00:35:14.251Z,5000.0000
2023-05-14T00:36:15.847Z,5000.0000
2023-05-14T00:37:17.536Z,5000.0000
2023-05-14T00:38:19.278Z,5000.0000
2023-05-14T00:39:20.754Z,5000.0000
2023-05-14T00:40:22.871Z,5000.0000
2023-05-14T00:41:24.065Z,5000.0000
2023-05-14T00:42:25.724Z,5000.0000
2023-05-14T00:43:27.386Z,5000.0000
2023-05-14T00:44:29.089Z,5000.0000
2023-05-14T00:45:30.637Z,5000.0000
2023-05-14T00:46:32.324Z,5000.0000
2023-05-14T00:47:34.030Z,5000.0000
2023-05-14T00:48:35.623Z,5000.0000
2023-05-14T00:49:37.248Z,5000.0000
2023-05-14T00:50:38.970Z,5000.0000
2023-05-14T00:51:40.524Z,5000.0000
2023-05-14T00:52:42.255Z,5000.0000
2023-05-14T00:53:43.859Z,5000.0000
2023-05-14T00:54:45.556Z,5000.0000
2023-05-14T00:55:47.027Z,5000.0000
2023-05-14T00:56:48.754Z,5000.0000
2023-05-14T00:57:50.317Z,5000.0000
2023-05-14T00:58:52.996Z,5000.0000
2023-05-14T00:59:53.753Z,5000.0000
2023-05-14T01:00:55.291Z,5000.0000
2023-05-14T01:01:56.922Z,5000.0000
2023-05-14T01:02:58.701Z,5000.0000
2023-05-14T01:04:00.290Z,5000.0000
2023-05-14T01:05:02.319Z,5000.0000
2023-05-14T01:06:03.495Z,5000.0000
2023-05-14T01:07:05.139Z,5000.0000
2023-05-14T01:08:06.770Z,5000.0000
2023-05-14T01:09:08.431Z,5000.0000
2023-05-14T01:10:11.044Z,5000.0000
2023-05-14T01:11:11.753Z,5000.0000
2023-05-14T01:12:13.355Z,5000.0000
2023-05-14T01:13:14.968Z,5000.0000
2023-05-14T01:14:17.108Z,5000.0000
2023-05-14T01:15:18.613Z,5000.0000
2023-05-14T01:16:20.774Z,5000.0000
2023-05-14T01:17:21.534Z,5000.0000
2023-05-14T01:18:23.218Z,5000.0000
2023-05-14T01:19:24.915Z,5000.0000
2023-05-14T01:20:26.639Z,5000.0000
2023-05-14T01:21:28.201Z,5000.0000
2023-05-14T01:22:29.919Z,5000.0000
2023-05-14T01:23:31.398Z,5000.0000
2023-05-14T01:24:33.085Z,5000.0000
2023-05-14T01:25:34.789Z,5000.0000
2023-05-14T01:26:36.472Z,5000.0000
2023-05-14T01:27:38.704Z,5000.0000
2023-05-14T01:28:39.794Z,5000.0000
2023-05-14T01:29:41.317Z,5000.0000
2023-05-14T01:30:43.355Z,5000.0000
2023-05-14T01:31:44.651Z,5000.0000
2023-05-14T01:32:46.322Z,5000.0000
2023-05-14T01:33:47.889Z,5000.0000
2023-05-14T01:34:49.542Z,5000.0000
2023-05-14T01:35:51.251Z,5000.0000
2023-05-14T01:36:53.263Z,5000.0000
2023-05-14T01:37:54.502Z,5000.0000
2023-05-14T01:38:56.109Z,5000.0000
2023-05-14T01:39:57.798Z,5000.0000
2023-05-14T01:40:59.426Z,5000.0000
2023-05-14T01:42:01.318Z,5000.0000
2023-05-14T01:43:02.759Z,5000.0000
2023-05-14T01:44:04.485Z,5000.0000
2023-05-14T01:45:05.973Z,5000.0000
2023-05-14T01:46:07.669Z,5000.0000
2023-05-14T01:47:09.800Z,5000.0000
2023-05-14T01:48:11.140Z,5000.0000
2023-05-14T01:49:12.542Z,5000.0000
2023-05-14T01:50:14.241Z,5000.0000
2023-05-14T01:51:15.861Z,5000.0000
2023-05-14T01:52:17.814Z,5000.0000
2023-05-14T01:53:19.216Z,5000.0000
2023-05-14T01:54:20.824Z,5000.0000
2023-05-14T01:55:22.451Z,5000.0000
2023-05-14T01:56:24.119Z,5000.0000
2023-05-14T01:57:25.796Z,5000.0000
2023-05-14T01:58:27.386Z,5000.0000
2023-05-14T01:59:29.104Z,5000.0000
2023-05-14T02:00:30.613Z,5000.0000
2023-05-14T02:01:33.325Z,5000.0000
2023-05-14T02:02:33.969Z,5000.0000
2023-05-14T02:03:35.576Z,5000.0000
2023-05-14T02:04:37.203Z,5000.0000
2023-05-14T02:05:38.841Z,5000.0000
2023-05-14T02:06:40.710Z,5000.0000
2023-05-14T02:07:42.195Z,5000.0000
2023-05-14T02:08:43.752Z,5000.0000
2023-05-14T02:09:45.457Z,5000.0000
2023-05-14T02:10:47.048Z,5000.0000
2023-05-14T02:11:48.795Z,5000.0000
2023-05-14T02:12:50.386Z,5000.0000
2023-05-14T02:13:52.045Z,5000.0000
2023-05-14T02:14:53.639Z,5000.0000
2023-05-14T02:15:55.350Z,5000.0000
2023-05-14T02:16:56.949Z,5000.0000
2023-05-14T02:17:58.836Z,5000.0000
2023-05-14T02:19:01.281Z,5000.0000
2023-05-14T02:20:01.878Z,5000.0000
2023-05-14T02:21:03.549Z,5000.0000
2023-05-14T02:22:05.164Z,5000.0000
2023-05-14T02:23:07.761Z,5000.0000
2023-05-14T02:24:08.498Z,5000.0000
2023-05-14T02:25:10.080Z,5000.0000
2023-05-14T02:26:11.708Z,5000.0000
2023-05-14T02:27:13.395Z,5000.0000
2023-05-14T02:28:15.747Z,5000.0000
2023-05-14T02:29:16.678Z,5000.0000
2023-05-14T02:30:18.296Z,5000.0000
2023-05-14T02:31:20.068Z,5000.0000
2023-05-14T02:32:21.603Z,5000.0000
2023-05-14T02:33:23.375Z,5000.0000
2023-05-14T02:34:25.051Z,5000.0000
2023-05-14T02:35:26.542Z,5000.0000
2023-05-14T02:36:28.245Z,5000.0000
2023-05-14T02:37:29.824Z,5000.0000
2023-05-14T02:38:31.491Z,5000.0000
2023-05-14T02:39:33.077Z,5000.0000
2023-05-14T02:40:34.773Z,5000.0000
2023-05-14T02:41:36.346Z,5000.0000
2023-05-14T02:42:38.221Z,5000.0000
2023-05-14T02:43:39.641Z,5000.0000
2023-05-14T02:44:41.334Z,5000.0000
2023-05-14T02:45:42.968Z,5000.0000
2023-05-14T02:46:44.623Z,5000.0000
2023-05-14T02:47:46.384Z,5000.0000
2023-05-14T02:48:48.739Z,5000.0000
2023-05-14T02:49:49.526Z,5000.0000
2023-05-14T02:50:51.222Z,5000.0000
2023-05-14T02:51:52.799Z,5000.0000
2023-05-14T02:52:54.703Z,5000.0000
2023-05-14T02:53:57.196Z,5000.0000
2023-05-14T02:54:58.866Z,5000.0000
2023-05-14T02:55:59.622Z,5000.0000
2023-05-14T02:57:01.188Z,5000.0000
2023-05-14T02:58:02.863Z,5000.0000
2023-05-14T02:59:04.579Z,5000.0000
2023-05-14T03:00:06.151Z,5000.0000
2023-05-14T03:01:07.867Z,5000.0000
2023-05-14T03:02:09.407Z,5000.0000
2023-05-14T03:03:11.118Z,5000.0000
2023-05-14T03:04:12.688Z,5000.0000
2023-05-14T03:05:14.314Z,5000.0000
2023-05-14T03:06:15.995Z,5000.0000
2023-05-14T03:07:17.643Z,5000.0000
2023-05-14T03:08:19.329Z,4892.1846
2023-05-14T03:09:20.900Z,4355.2310
2023-05-14T03:10:22.686Z,4310.6616
2023-05-14T03:11:24.340Z,4297.3384
2023-05-14T03:12:25.821Z,4278.6768
2023-05-14T03:13:27.507Z,3754.8923
2023-05-14T03:14:29.146Z,2879.6616
2023-05-14T03:15:30.791Z,1856.9077
2023-05-14T03:16:33.379Z,1296.3539
2023-05-14T03:17:34.088Z,753.2923
2023-05-14T03:18:35.836Z,742.1231
2023-05-14T03:19:37.370Z,3957.7847
2023-05-14T03:20:38.932Z,4889.8154
2023-05-14T03:21:40.630Z,4458.9385
2023-05-14T03:22:42.235Z,4736.7847
2023-05-14T03:23:43.969Z,3285.1692
2023-05-14T03:24:45.538Z,3719.3232
2023-05-14T03:25:47.562Z,4848.4307
2023-05-14T03:26:49.208Z,3748.0615
2023-05-14T03:27:50.593Z,4964.2002
2023-05-14T03:28:52.100Z,5000.0000
2023-05-14T03:29:53.746Z,5000.0000
2023-05-14T03:30:55.745Z,5000.0000
2023-05-14T03:31:57.354Z,4860.6309
2023-05-14T03:32:58.990Z,4894.4463
2023-05-14T03:34:00.409Z,5000.0000
2023-05-14T03:35:02.017Z,5000.0000
2023-05-14T03:36:03.686Z,5000.0000
2023-05-14T03:37:05.266Z,5000.0000
2023-05-14T03:38:07.008Z,5000.0000
2023-05-14T03:39:08.648Z,5000.0000
2023-05-14T03:40:10.267Z,5000.0000
2023-05-14T03:41:11.864Z,5000.0000
2023-05-14T03:42:13.568Z,5000.0000
2023-05-14T03:43:15.160Z,4793.0615
2023-05-14T03:44:16.854Z,2879.6001
2023-05-14T03:45:18.558Z,1448.4462
2023-05-14T03:46:20.129Z,1172.7847
2023-05-14T03:47:22.064Z,584.3231
2023-05-14T03:48:23.841Z,577.2769
2023-05-14T03:49:25.067Z,1138.5077
2023-05-14T03:50:26.714Z,2300.1692
2023-05-14T03:51:28.304Z,2198.7078
2023-05-14T03:52:30.057Z,1999.6616
2023-05-14T03:53:31.659Z,2109.2153
2023-05-14T03:54:33.271Z,2138.6001
2023-05-14T03:55:34.862Z,1881.2616
2023-05-14T03:56:36.612Z,1949.7230
2023-05-14T03:57:38.198Z,2195.9385
2023-05-14T03:58:39.866Z,2118.4463
2023-05-14T03:59:41.465Z,2607.5847
2023-05-14T04:00:43.094Z,3808.4309
2023-05-14T04:01:44.923Z,5000.0000
2023-05-14T04:02:46.562Z,5000.0000
2023-05-14T04:03:48.580Z,5000.0000
2023-05-14T04:04:49.814Z,5000.0000
2023-05-14T04:05:51.878Z,5000.0000
2023-05-14T04:06:53.922Z,5000.0000
2023-05-14T04:07:54.593Z,5000.0000
2023-05-14T04:08:56.361Z,5000.0000
2023-05-14T04:09:57.921Z,5000.0000
2023-05-14T04:10:59.524Z,5000.0000
2023-05-14T04:12:01.186Z,5000.0000
2023-05-14T04:13:02.837Z,5000.0000
2023-05-14T04:14:05.367Z,5000.0000
2023-05-14T04:15:06.149Z,5000.0000
2023-05-14T04:16:07.835Z,5000.0000
2023-05-14T04:17:09.447Z,5000.0000
2023-05-14T04:18:11.029Z,5000.0000
2023-05-14T04:19:12.787Z,5000.0000
2023-05-14T04:20:14.348Z,5000.0000
2023-05-14T04:21:16.039Z,5000.0000
2023-05-14T04:22:17.612Z,5000.0000
2023-05-14T04:23:19.233Z,5000.0000
2023-05-14T04:24:20.908Z,5000.0000
2023-05-14T04:25:22.664Z,5000.0000
2023-05-14T04:26:24.165Z,5000.0000
2023-05-14T04:27:25.892Z,5000.0000
2023-05-14T04:28:27.516Z,5000.0000
2023-05-14T04:29:29.176Z,5000.0000
2023-05-14T04:30:30.889Z,5000.0000
2023-05-14T04:31:33.440Z,5000.0000
2023-05-14T04:32:34.088Z,5000.0000
2023-05-14T04:33:35.722Z,5000.0000
2023-05-14T04:34:37.342Z,5000.0000
2023-05-14T04:35:39.023Z,5000.0000
2023-05-14T04:36:40.639Z,5000.0000
2023-05-14T04:37:42.368Z,5000.0000
2023-05-14T04:38:43.994Z,5000.0000
2023-05-14T04:39:45.586Z,5000.0000
2023-05-14T04:40:47.227Z,5000.0000
2023-05-14T04:41:48.876Z,5000.0000
2023-05-14T04:42:50.580Z,5000.0000
2023-05-14T04:43:52.140Z,5000.0000
2023-05-14T04:44:53.811Z,5000.0000
2023-05-14T04:45:55.432Z,5000.0000
2023-05-14T04:46:57.136Z,5000.0000
2023-05-14T04:47:58.768Z,5000.0000
2023-05-14T04:49:00.361Z,5000.0000
2023-05-14T04:50:02.137Z,5000.0000
2023-05-14T04:51:05.634Z,5000.0000
2023-05-14T04:52:05.318Z,5000.0000
2023-05-14T04:53:06.985Z,5000.0000
2023-05-14T04:54:08.597Z,5000.0000
2023-05-14T04:55:10.287Z,4476.6152
2023-05-14T04:56:11.965Z,3322.8462
2023-05-14T04:57:13.597Z,2243.9539
2023-05-14T04:58:15.174Z,1377.5077
2023-05-14T04:59:16.904Z,718.8462
2023-05-14T05:00:19.394Z,2201.5847
2023-05-14T05:01:20.177Z,3305.7539
2023-05-14T05:02:21.798Z,2305.6616
2023-05-14T05:03:23.408Z,315.6154
2023-05-14T05:04:25.082Z,394.9692
2023-05-14T05:05:26.698Z,1908.5385
2023-05-14T05:06:28.317Z,2843.5386
2023-05-14T05:07:30.073Z,4815.7847
2023-05-14T05:08:31.700Z,2579.2615
2023-05-14T05:09:33.275Z,731.7538
2023-05-14T05:10:34.936Z,135.6000
2023-05-14T05:11:36.619Z,476.2769
2023-05-14T05:12:39.180Z,918.0000
2023-05-14T05:13:39.894Z,791.2308
2023-05-14T05:14:41.436Z,24.5077
2023-05-14T05:15:43.535Z,0.1077
2023-05-14T05:16:45.655Z,0.0462
2023-05-14T05:17:46.436Z,219.0308
2023-05-14T05:18:48.060Z,687.8461
2023-05-14T05:19:49.660Z,378.8923
2023-05-14T05:20:51.279Z,197.4000
2023-05-14T05:21:52.927Z,396.6923
2023-05-14T05:22:54.615Z,867.8770
2023-05-14T05:23:56.272Z,1559.7539
2023-05-14T05:24:57.845Z,4318.1387
2023-05-14T05:25:59.549Z,4225.0000
2023-05-14T05:27:01.249Z,5000.0000
2023-05-14T05:28:02.839Z,4999.6768
2023-05-14T05:29:04.465Z,5000.0000
2023-05-14T05:30:06.233Z,5000.0000
2023-05-14T05:31:07.857Z,5000.0000
2023-05-14T05:32:09.436Z,5000.0000
2023-05-14T05:33:11.266Z,5000.0000
2023-05-14T05:34:12.726Z,5000.0000
2023-05-14T05:35:14.501Z,5000.0000
2023-05-14T05:36:16.077Z,5000.0000
2023-05-14T05:37:17.784Z,5000.0000
2023-05-14T05:38:19.424Z,5000.0000
2023-05-14T05:39:21.067Z,4695.5693
2023-05-14T05:40:22.770Z,4838.2769
2023-05-14T05:41:24.316Z,5000.0000
2023-05-14T05:42:25.913Z,5000.0000
2023-05-14T05:43:27.582Z,5000.0000
2023-05-14T05:44:29.263Z,5000.0000
2023-05-14T05:45:30.867Z,5000.0000
2023-05-14T05:46:32.603Z,5000.0000
2023-05-14T05:47:34.143Z,5000.0000
2023-05-14T05:48:35.763Z,5000.0000
2023-05-14T05:49:37.455Z,5000.0000
2023-05-14T05:50:39.078Z,5000.0000
2023-05-14T05:51:40.714Z,5000.0000
2023-05-14T05:52:42.314Z,5000.0000
2023-05-14T05:53:44.903Z,5000.0000
2023-05-14T05:54:45.671Z,5000.0000
2023-05-14T05:55:47.317Z,5000.0000
2023-05-14T05:56:48.888Z,5000.0000
2023-05-14T05:57:50.602Z,5000.0000
2023-05-14T05:58:52.949Z,5000.0000
2023-05-14T05:59:54.911Z,5000.0000
2023-05-14T06:00:55.468Z,5000.0000
2023-05-14T06:01:57.194Z,5000.0000
2023-05-14T06:02:58.822Z,5000.0000
2023-05-14T06:04:00.512Z,5000.0000
2023-05-14T06:05:02.214Z,5000.0000
2023-05-14T06:06:03.734Z,5000.0000
2023-05-14T06:07:05.651Z,5000.0000
2023-05-14T06:08:07.028Z,5000.0000
2023-05-14T06:09:08.686Z,5000.0000
2023-05-14T06:10:10.358Z,5000.0000
2023-05-14T06:11:11.894Z,5000.0000
2023-05-14T06:12:13.624Z,5000.0000
2023-05-14T06:13:15.229Z,5000.0000
2023-05-14T06:14:16.937Z,5000.0000
2023-05-14T06:15:18.917Z,5000.0000
2023-05-14T06:16:20.199Z,5000.0000
2023-05-14T06:17:21.811Z,5000.0000
2023-05-14T06:18:23.485Z,5000.0000
2023-05-14T06:19:25.145Z,5000.0000
2023-05-14T06:20:26.906Z,5000.0000
2023-05-14T06:21:28.408Z,5000.0000
2023-05-14T06:22:30.041Z,5000.0000
2023-05-14T06:23:31.641Z,5000.0000
2023-05-14T06:24:33.448Z,5000.0000
2023-05-14T06:25:34.976Z,5000.0000
2023-05-14T06:26:36.632Z,5000.0000
2023-05-14T06:27:38.246Z,5000.0000
2023-05-14T06:28:39.992Z,5000.0000
2023-05-14T06:29:41.563Z,5000.0000
2023-05-14T06:30:43.283Z,5000.0000
2023-05-14T06:31:44.898Z,5000.0000
2023-05-14T06:32:46.593Z,5000.0000
2023-05-14T06:33:48.112Z,5000.0000
2023-05-14T06:34:49.883Z,5000.0000
2023-05-14T06:35:51.446Z,5000.0000
2023-05-14T06:36:53.103Z,5000.0000
2023-05-14T06:37:54.803Z,5000.0000
2023-05-14T06:38:56.368Z,5000.0000
2023-05-14T06:39:58.172Z,5000.0000
2023-05-14T06:40:59.707Z,5000.0000
2023-05-14T06:42:01.367Z,5000.0000
2023-05-14T06:43:02.987Z,5000.0000
2023-05-14T06:44:04.603Z,5000.0000
2023-05-14T06:45:06.256Z,5000.0000
2023-05-14T06:46:08.426Z,5000.0000
2023-05-14T06:47:09.615Z,5000.0000
2023-05-14T06:48:11.235Z,5000.0000
2023-05-14T06:49:12.852Z,5000.0000
2023-05-14T06:50:14.561Z,5000.0000
2023-05-14T06:51:16.901Z,5000.0000
2023-05-14T06:52:17.766Z,5000.0000
2023-05-14T06:53:19.419Z,5000.0000
2023-05-14T06:54:21.068Z,5000.0000
2023-05-14T06:55:22.700Z,5000.0000
2023-05-14T06:56:24.405Z,5000.0000
2023-05-14T06:57:25.943Z,5000.0000
2023-05-14T06:58:27.627Z,5000.0000
2023-05-14T06:59:29.216Z,5000.0000
2023-05-14T07:00:30.980Z,5000.0000
2023-05-14T07:01:32.532Z,5000.0000
2023-05-14T07:02:34.158Z,5000.0000
2023-05-14T07:03:36.301Z,5000.0000
2023-05-14T07:04:37.469Z,5000.0000
2023-05-14T07:05:39.048Z,5000.0000
2023-05-14T07:06:40.801Z,5000.0000
2023-05-14T07:07:42.356Z,5000.0000
2023-05-14T07:08:44.051Z,5000.0000
2023-05-14T07:09:45.630Z,5000.0000
2023-05-14T07:10:47.385Z,5000.0000
2023-05-14T07:11:49.480Z,5000.0000
2023-05-14T07:12:50.616Z,5000.0000
2023-05-14T07:13:52.266Z,5000.0000
2023-05-14T07:14:53.933Z,5000.0000
2023-05-14T07:15:55.533Z,5000.0000
2023-05-14T07:16:57.245Z,5000.0000
2023-05-14T07:17:58.859Z,5000.0000
2023-05-14T07:19:00.558Z,5000.0000
2023-05-14T07:20:02.134Z,5000.0000
2023-05-14T07:21:03.801Z,5000.0000
2023-05-14T07:22:05.414Z,5000.0000
2023-05-14T07:23:07.050Z,5000.0000
2023-05-14T07:24:08.716Z,5000.0000
2023-05-14T07:25:10.344Z,5000.0000
2023-05-14T07:26:12.015Z,5000.0000
2023-05-14T07:27:13.615Z,5000.0000
2023-05-14T07:28:15.254Z,5000.0000
2023-05-14T07:29:16.983Z,5000.0000
2023-05-14T07:30:18.533Z,5000.0000
2023-05-14T07:31:20.309Z,5000.0000
2023-05-14T07:32:21.852Z,5000.0000
2023-05-14T07:33:23.509Z,5000.0000
2023-05-14T07:34:25.148Z,5000.0000
2023-05-14T07:35:26.747Z,5000.0000
2023-05-14T07:36:28.426Z,5000.0000
2023-05-14T07:37:30.109Z,5000.0000
2023-05-14T07:38:31.720Z,5000.0000
2023-05-14T07:39:33.345Z,5000.0000
2023-05-14T07:40:34.980Z,5000.0000
2023-05-14T07:41:37.333Z,5000.0000
2023-05-14T07:42:38.263Z,5000.0000
2023-05-14T07:43:39.949Z,5000.0000
2023-05-14T07:44:41.616Z,5000.0000
2023-05-14T07:45:43.214Z,5000.0000
2023-05-14T07:46:44.928Z,5000.0000
2023-05-14T07:47:46.534Z,5000.0000
2023-05-14T07:48:48.126Z,5000.0000
2023-05-14T07:49:49.778Z,5000.0000
2023-05-14T07:50:51.444Z,5000.0000
2023-05-14T07:51:53.843Z,5000.0000
2023-05-14T07:52:54.813Z,5000.0000
2023-05-14T07:53:56.512Z,5000.0000
2023-05-14T07:54:58.279Z,5000.0000
2023-05-14T07:55:59.770Z,5000.0000
2023-05-14T07:57:01.511Z,5000.0000
2023-05-14T07:58:03.574Z,5000.0000
2023-05-14T07:59:04.751Z,5000.0000
2023-05-14T08:00:06.545Z,5000.0000
2023-05-14T08:01:09.078Z,5000.0000
2023-05-14T08:02:09.711Z,5000.0000
2023-05-14T08:03:11.452Z,5000.0000
2023-05-14T08:04:13.159Z,5000.0000
2023-05-14T08:05:14.608Z,5000.0000
2023-05-14T08:06:16.273Z,5000.0000
2023-05-14T08:07:17.906Z,5000.0000
2023-05-14T08:08:19.516Z,5000.0000
2023-05-14T08:09:21.210Z,5000.0000
2023-05-14T08:10:24.025Z,5000.0000
2023-05-14T08:11:24.420Z,5000.0000
2023-05-14T08:12:27.094Z,5000.0000
2023-05-14T08:13:27.722Z,5000.0000
2023-05-14T08:14:29.632Z,5000.0000
2023-05-14T08:15:31.023Z,5000.0000
2023-05-14T08:16:32.785Z,5000.0000
2023-05-14T08:17:34.363Z,5000.0000
2023-05-14T08:18:36.040Z,5000.0000
2023-05-14T08:19:38.561Z,5000.0000
2023-05-14T08:20:39.294Z,5000.0000
2023-05-14T08:21:41.052Z,5000.0000
2023-05-14T08:22:42.685Z,5000.0000
2023-05-14T08:23:44.552Z,5000.0000
2023-05-14T08:24:45.926Z,5000.0000
2023-05-14T08:25:47.519Z,5000.0000
2023-05-14T08:26:49.264Z,5000.0000
2023-05-14T08:27:50.823Z,5000.0000
2023-05-14T08:28:52.488Z,5000.0000
2023-05-14T08:29:54.056Z,5000.0000
2023-05-14T08:30:55.759Z,5000.0000
2023-05-14T08:31:57.610Z,5000.0000
2023-05-14T08:32:59.716Z,5000.0000
2023-05-14T08:34:00.687Z,5000.0000
2023-05-14T08:35:02.278Z,5000.0000
2023-05-14T08:36:03.996Z,5000.0000
2023-05-14T08:37:05.640Z,5000.0000
2023-05-14T08:38:08.266Z,5000.0000
2023-05-14T08:39:09.029Z,5000.0000
2023-05-14T08:40:10.523Z,5000.0000
2023-05-14T08:41:12.317Z,5000.0000
2023-05-14T08:42:13.858Z,5000.0000
2023-05-14T08:43:15.580Z,5000.0000
2023-05-14T08:44:17.155Z,5000.0000
2023-05-14T08:45:18.864Z,5000.0000
2023-05-14T08:46:20.422Z,5000.0000
2023-05-14T08:47:22.123Z,5000.0000
2023-05-14T08:48:23.774Z,5000.0000
2023-05-14T08:49:25.366Z,5000.0000
2023-05-14T08:50:27.455Z,5000.0000
2023-05-14T08:51:28.636Z,5000.0000
2023-05-14T08:52:30.283Z,5000.0000
2023-05-14T08:53:31.953Z,5000.0000
2023-05-14T08:54:33.619Z,5000.0000
2023-05-14T08:55:35.213Z,5000.0000
2023-05-14T08:56:36.830Z,5000.0000
2023-05-14T08:57:38.542Z,5000.0000
2023-05-14T08:58:40.200Z,5000.0000
2023-05-14T08:59:41.894Z,5000.0000
2023-05-14T09:00:43.459Z,5000.0000
2023-05-14T09:01:45.146Z,5000.0000
2023-05-14T09:02:46.805Z,5000.0000
2023-05-14T09:03:48.351Z,5000.0000
2023-05-14T09:04:49.979Z,5000.0000
2023-05-14T09:05:51.807Z,5000.0000
2023-05-14T09:06:53.305Z,5000.0000
2023-05-14T09:07:55.009Z,5000.0000
2023-05-14T09:08:56.586Z,5000.0000
2023-05-14T09:09:58.322Z,5000.0000
2023-05-14T09:11:00.868Z,5000.0000
2023-05-14T09:12:01.583Z,5000.0000
2023-05-14T09:13:03.215Z,5000.0000
2023-05-14T09:14:04.775Z,5000.0000
2023-05-14T09:15:07.250Z,5000.0000
2023-05-14T09:16:08.156Z,5000.0000
2023-05-14T09:17:09.828Z,5000.0000
2023-05-14T09:18:11.372Z,5000.0000
2023-05-14T09:19:13.193Z,5000.0000
2023-05-14T09:20:14.693Z,5000.0000
2023-05-14T09:21:16.491Z,5000.0000
2023-05-14T09:22:17.985Z,5000.0000
2023-05-14T09:23:19.710Z,5000.0000
2023-05-14T09:24:21.381Z,5000.0000
2023-05-14T09:25:24.034Z,5000.0000
2023-05-14T09:26:24.520Z,5000.0000
2023-05-14T09:27:27.244Z,5000.0000
2023-05-14T09:28:27.844Z,5000.0000
2023-05-14T09:29:29.494Z,5000.0000
2023-05-14T09:30:32.522Z,5000.0000
2023-05-14T09:31:32.746Z,5000.0000
2023-05-14T09:32:35.552Z,5000.0000
2023-05-14T09:33:36.116Z,5000.0000
2023-05-14T09:34:38.108Z,5000.0000
2023-05-14T09:35:39.531Z,5000.0000
2023-05-14T09:36:41.165Z,5000.0000
2023-05-14T09:37:42.800Z,5000.0000
2023-05-14T09:38:44.441Z,5000.0000
2023-05-14T09:39:45.982Z,5000.0000
2023-05-14T09:40:47.750Z,5000.0000
2023-05-14T09:41:49.327Z,5000.0000
2023-05-14T09:42:50.982Z,5000.0000
2023-05-14T09:43:52.634Z,5000.0000
2023-05-14T09:44:54.261Z,5000.0000
2023-05-14T09:45:55.960Z,5000.0000
2023-05-14T09:46:57.614Z,5000.0000
2023-05-14T09:48:00.329Z,5000.0000
2023-05-14T09:49:00.806Z,5000.0000
2023-05-14T09:50:03.425Z,5000.0000
2023-05-14T09:51:04.738Z,5000.0000
2023-05-14T09:52:05.728Z,5000.0000
2023-05-14T09:53:07.472Z,5000.0000
2023-05-14T09:54:09.105Z,5000.0000
2023-05-14T09:55:10.675Z,5000.0000
2023-05-14T09:56:12.485Z,5000.0000
2023-05-14T09:57:14.055Z,5000.0000
2023-05-14T09:58:15.667Z,5000.0000
2023-05-14T09:59:17.593Z,5000.0000
2023-05-14T10:00:18.986Z,5000.0000
2023-05-14T10:01:21.704Z,5000.0000
2023-05-14T10:02:22.328Z,5000.0000
2023-05-14T10:03:23.929Z,5000.0000
2023-05-14T10:04:25.511Z,5000.0000
2023-05-14T10:05:27.209Z,5000.0000
2023-05-14T10:06:28.820Z,5000.0000
2023-05-14T10:07:30.449Z,5000.0000
2023-05-14T10:08:32.639Z,5000.0000
2023-05-14T10:09:33.784Z,5000.0000
2023-05-14T10:10:35.385Z,5000.0000
2023-05-14T10:11:38.101Z,5000.0000
2023-05-14T10:12:38.689Z,5000.0000
2023-05-14T10:13:40.282Z,5000.0000
2023-05-14T10:14:42.026Z,5000.0000
2023-05-14T10:15:43.612Z,5000.0000
2023-05-14T10:16:45.274Z,5000.0000
2023-05-14T10:17:47.085Z,5000.0000
2023-05-14T10:18:48.661Z,5000.0000
2023-05-14T10:19:50.223Z,5000.0000
2023-05-14T10:20:51.799Z,5000.0000
2023-05-14T10:21:53.521Z,5000.0000
2023-05-14T10:22:55.138Z,5000.0000
2023-05-14T10:23:56.973Z,5000.0000
2023-05-14T10:24:58.540Z,5000.0000
2023-05-14T10:26:00.201Z,5000.0000
2023-05-14T10:27:01.774Z,5000.0000
2023-05-14T10:28:03.385Z,5000.0000
2023-05-14T10:29:05.026Z,5000.0000
2023-05-14T10:30:06.656Z,5000.0000
2023-05-14T10:31:08.264Z,5000.0000
2023-05-14T10:32:10.062Z,5000.0000
2023-05-14T10:33:12.619Z,5000.0000
2023-05-14T10:34:13.193Z,5000.0000
2023-05-14T10:35:15.863Z,5000.0000
2023-05-14T10:36:16.484Z,5000.0000
2023-05-14T10:37:18.134Z,5000.0000
2023-05-14T10:38:19.712Z,5000.0000
2023-05-14T10:39:21.444Z,5000.0000
2023-05-14T10:40:23.133Z,5000.0000
2023-05-14T10:41:24.762Z,5000.0000
2023-05-14T10:42:26.315Z,5000.0000
2023-05-14T10:43:28.000Z,5000.0000
2023-05-14T10:44:29.632Z,5000.0000
2023-05-14T10:45:31.334Z,5000.0000
2023-05-14T10:46:32.936Z,5000.0000
2023-05-14T10:47:34.605Z,5000.0000
2023-05-14T10:48:36.196Z,5000.0000
2023-05-14T10:49:43.349Z,5000.0000
2023-05-14T10:50:39.516Z,5000.0000
2023-05-14T10:51:41.253Z,5000.0000
2023-05-14T10:52:42.780Z,5000.0000
2023-05-14T10:53:44.494Z,5000.0000
2023-05-14T10:54:46.080Z,5000.0000
2023-05-14T10:55:47.732Z,5000.0000
2023-05-14T10:56:49.407Z,5000.0000
2023-05-14T10:57:51.017Z,5000.0000
2023-05-14T10:58:52.664Z,5000.0000
2023-05-14T10:59:55.171Z,5000.0000
2023-05-14T11:00:56.025Z,5000.0000
2023-05-14T11:01:57.749Z,5000.0000
2023-05-14T11:02:59.368Z,5000.0000
2023-05-14T11:04:01.017Z,5000.0000
2023-05-14T11:05:04.440Z,5000.0000
2023-05-14T11:06:04.235Z,5000.0000
2023-05-14T11:07:05.905Z,5000.0000
2023-05-14T11:08:07.574Z,5000.0000
2023-05-14T11:09:09.131Z,5000.0000
2023-05-14T11:10:10.859Z,5000.0000
2023-05-14T11:11:12.508Z,5000.0000
2023-05-14T11:12:14.065Z,5000.0000
2023-05-14T11:13:15.681Z,5000.0000
2023-05-14T11:14:17.434Z,5000.0000
2023-05-14T11:15:19.029Z,5000.0000
2023-05-14T11:16:23.760Z,5000.0000
2023-05-14T11:17:22.302Z,5000.0000
2023-05-14T11:18:23.958Z,5000.0000
2023-05-14T11:19:25.627Z,5000.0000
2023-05-14T11:20:27.346Z,5000.0000
2023-05-14T11:21:29.007Z,5000.0000
2023-05-14T11:22:30.552Z,5000.0000
2023-05-14T11:23:32.168Z,5000.0000
2023-05-14T11:24:33.832Z,5000.0000
2023-05-14T11:25:35.547Z,5000.0000
2023-05-14T11:26:38.122Z,5000.0000
2023-05-14T11:27:38.762Z,5000.0000
2023-05-14T11:28:40.562Z,5000.0000
2023-05-14T11:29:42.090Z,5000.0000
2023-05-14T11:30:43.712Z,5000.0000
2023-05-14T11:31:45.475Z,5000.0000
2023-05-14T11:32:47.001Z,5000.0000
2023-05-14T11:33:48.641Z,5000.0000
2023-05-14T11:34:50.573Z,5000.0000
2023-05-14T11:35:51.964Z,5000.0000
2023-05-14T11:36:53.547Z,5000.0000
2023-05-14T11:37:55.204Z,5000.0000
2023-05-14T11:38:56.824Z,5000.0000
2023-05-14T11:39:58.558Z,5000.0000
2023-05-14T11:41:00.160Z,5000.0000
2023-05-14T11:42:01.739Z,5000.0000
2023-05-14T11:43:03.425Z,5000.0000
2023-05-14T11:44:05.964Z,5000.0000